Time;durP1;ratioP1;P1;durP2;ratioP2;P2;SDS_P1;SDS_P2;PMS_P1;PMS_P2;Temp;Humidity;BMP_temperature;BMP_pressure;BME280_temperature;BME280_humidity;BME280_pressure;Samples;Min_cycle;Max_cycle;Signal;HPM_P1;HPM_P2
2023/11/10 00:01:36;;;;;;;4.90;4.40;;;6.90;99.90;;;;;;4975770;28;20651;-70
2023/11/10 00:04:03;;;;;;;5.93;4.30;;;6.90;99.90;;;;;;4975721;28;20239;-70
2023/11/10 00:06:28;;;;;;;5.37;4.53;;;6.90;99.90;;;;;;4975541;28;20193;-70
2023/11/10 00:08:55;;;;;;;8.13;4.30;;;6.90;99.90;;;;;;4975748;28;20252;-70
2023/11/10 00:11:20;;;;;;;4.80;4.50;;;6.90;99.90;;;;;;4975544;28;20225;-70
2023/11/10 00:13:46;;;;;;;6.10;4.67;;;7.00;99.90;;;;;;4975638;28;20270;-70
2023/11/10 00:16:11;;;;;;;6.33;4.67;;;6.90;99.90;;;;;;4975572;28;20196;-70
2023/11/10 00:18:37;;;;;;;4.73;4.43;;;7.00;99.90;;;;;;4975225;28;20189;-70
2023/11/10 00:21:03;;;;;;;4.97;4.47;;;7.00;99.90;;;;;;4975357;28;20178;-70
2023/11/10 00:23:28;;;;;;;5.03;4.53;;;7.00;99.90;;;;;;4975346;28;20264;-70
2023/11/10 00:25:54;;;;;;;4.60;4.30;;;7.00;99.90;;;;;;4975388;28;20596;-70
2023/11/10 00:28:19;;;;;;;7.43;4.67;;;7.00;99.90;;;;;;4975361;28;20182;-70
2023/11/10 00:30:45;;;;;;;7.07;4.20;;;7.00;99.90;;;;;;4975142;28;20621;-69
2023/11/10 00:33:11;;;;;;;7.50;4.47;;;7.10;99.90;;;;;;4975124;28;20177;-70
2023/11/10 00:35:37;;;;;;;4.47;4.07;;;7.10;99.90;;;;;;4975171;28;20239;-69
2023/11/10 00:38:03;;;;;;;6.00;4.57;;;7.10;99.90;;;;;;4974730;28;20257;-69
2023/11/10 00:40:30;;;;;;;4.70;4.40;;;7.10;99.90;;;;;;4975099;28;20181;-69
2023/11/10 00:42:56;;;;;;;6.70;4.30;;;7.10;99.90;;;;;;4975057;28;20193;-70
2023/11/10 00:45:22;;;;;;;5.00;4.60;;;7.20;99.90;;;;;;4975029;28;20185;-68
2023/11/10 00:47:48;;;;;;;4.87;4.53;;;7.20;99.90;;;;;;4974563;28;20185;-70
2023/11/10 00:50:13;;;;;;;5.07;4.50;;;7.20;99.90;;;;;;4975030;28;20169;-72
2023/11/10 00:52:39;;;;;;;5.40;4.83;;;7.10;99.90;;;;;;4974899;28;20174;-71
2023/11/10 00:55:06;;;;;;;5.10;4.60;;;7.20;99.90;;;;;;4974847;28;20226;-71
2023/11/10 00:57:32;;;;;;;5.07;4.57;;;7.20;99.90;;;;;;4974544;28;20174;-71
2023/11/10 00:59:58;;;;;;;5.30;4.90;;;7.10;99.90;;;;;;4974818;28;20184;-71
2023/11/10 01:02:24;;;;;;;5.97;4.90;;;7.20;99.90;;;;;;4974512;28;20702;-69
2023/11/10 01:04:49;;;;;;;5.83;4.80;;;7.10;99.90;;;;;;4974694;28;20283;-70
2023/11/10 01:07:15;;;;;;;5.87;5.00;;;7.10;99.90;;;;;;4974605;28;20596;-70
2023/11/10 01:09:41;;;;;;;5.37;4.90;;;7.10;99.90;;;;;;4974892;28;20169;-70
2023/11/10 01:12:08;;;;;;;7.33;4.90;;;7.10;99.90;;;;;;4974632;28;20228;-69
2023/11/10 01:14:34;;;;;;;7.33;5.80;;;7.00;99.90;;;;;;4974456;28;20566;-69
2023/11/10 01:16:59;;;;;;;6.03;5.37;;;7.00;99.90;;;;;;4974462;28;20170;-69
2023/11/10 01:19:25;;;;;;;6.13;5.10;;;7.00;99.90;;;;;;4974681;28;20173;-69
2023/11/10 01:21:51;;;;;;;9.13;5.20;;;7.00;99.90;;;;;;4974367;28;20180;-70
2023/11/10 01:24:16;;;;;;;5.60;5.10;;;7.00;99.90;;;;;;4974065;28;20260;-69
2023/11/10 01:26:42;;;;;;;5.30;4.77;;;7.00;99.90;;;;;;4974279;28;20165;-69
2023/11/10 01:29:08;;;;;;;7.43;5.13;;;7.00;99.90;;;;;;4974349;28;20207;-70
2023/11/10 01:31:33;;;;;;;5.57;5.13;;;7.00;99.90;;;;;;4974101;28;20492;-70
2023/11/10 01:33:59;;;;;;;5.40;4.90;;;7.00;99.90;;;;;;4974220;28;20177;-70
2023/11/10 01:36:24;;;;;;;5.80;5.30;;;7.00;99.90;;;;;;4974109;28;20198;-69
2023/11/10 01:38:51;;;;;;;8.37;5.57;;;7.10;99.90;;;;;;4974124;28;20181;-69
2023/11/10 01:41:16;;;;;;;6.30;5.60;;;7.10;99.90;;;;;;4974132;28;20173;-69
2023/11/10 01:43:44;;;;;;;6.03;5.30;;;7.10;99.90;;;;;;4973712;28;20205;-69
2023/11/10 01:46:28;;;;;;;6.20;5.20;;;7.10;99.90;;;;;;4973765;28;20658;-70
2023/11/10 01:48:54;;;;;;;5.67;5.17;;;7.20;99.90;;;;;;4974018;28;20185;-69
2023/11/10 01:51:20;;;;;;;5.63;5.27;;;7.20;99.90;;;;;;4973930;28;20314;-70
2023/11/10 01:53:45;;;;;;;5.80;4.97;;;7.20;99.90;;;;;;4973669;28;20264;-69
2023/11/10 01:56:11;;;;;;;5.27;4.87;;;7.20;99.90;;;;;;4973732;28;20199;-70
2023/11/10 01:58:37;;;;;;;5.30;4.80;;;7.10;99.90;;;;;;4973598;28;20194;-70
2023/11/10 02:01:05;;;;;;;5.10;4.70;;;7.20;99.90;;;;;;4973502;28;20178;-70
2023/11/10 02:03:30;;;;;;;5.27;4.87;;;7.20;99.90;;;;;;4972831;28;20204;-69
2023/11/10 02:05:56;;;;;;;11.53;5.10;;;7.10;99.90;;;;;;4973568;28;20190;-70
2023/11/10 02:08:22;;;;;;;5.50;4.83;;;7.20;99.90;;;;;;4973523;28;20674;-69
2023/11/10 02:10:47;;;;;;;6.63;4.90;;;7.20;99.90;;;;;;4973549;28;20248;-70
2023/11/10 02:13:20;;;;;;;4.20;3.80;;;7.20;99.90;;;;;;4973334;28;20181;-69
2023/11/10 02:15:45;;;;;;;6.13;4.00;;;7.20;99.90;;;;;;4973230;28;20752;-70
2023/11/10 02:18:11;;;;;;;4.23;3.83;;;7.20;99.90;;;;;;4972745;28;20181;-70
2023/11/10 02:20:37;;;;;;;5.90;4.20;;;7.30;99.90;;;;;;4971484;28;20189;-70
2023/11/10 02:23:02;;;;;;;6.73;4.17;;;7.30;99.90;;;;;;4973342;28;20197;-71
2023/11/10 02:25:28;;;;;;;5.57;4.43;;;7.30;99.90;;;;;;4973255;28;20197;-70
2023/11/10 02:27:54;;;;;;;5.63;4.37;;;7.40;99.90;;;;;;4972753;28;20173;-69
2023/11/10 02:30:20;;;;;;;4.63;4.17;;;7.40;99.90;;;;;;4973237;28;20685;-69
2023/11/10 02:32:47;;;;;;;4.43;4.10;;;7.40;99.90;;;;;;4973168;28;20213;-71
2023/11/10 02:35:14;;;;;;;3.90;3.70;;;7.40;99.90;;;;;;4973030;28;20193;-70
2023/11/10 02:37:40;;;;;;;4.77;4.20;;;7.40;99.90;;;;;;4972835;28;20170;-70
2023/11/10 02:40:06;;;;;;;4.33;3.93;;;7.40;99.90;;;;;;4972627;28;20305;-70
2023/11/10 02:42:35;;;;;;;5.07;4.20;;;7.40;99.90;;;;;;4973138;28;20220;-70
2023/11/10 02:45:01;;;;;;;4.20;3.90;;;7.40;99.90;;;;;;4972695;28;20193;-70
2023/11/10 02:47:28;;;;;;;5.63;4.33;;;7.40;99.90;;;;;;4972531;28;20265;-70
2023/11/10 02:49:54;;;;;;;5.07;4.20;;;7.50;99.90;;;;;;4972923;28;20245;-71
2023/11/10 02:52:19;;;;;;;4.67;4.00;;;7.50;99.90;;;;;;4972812;28;20188;-70
2023/11/10 02:54:45;;;;;;;4.30;3.90;;;7.50;99.90;;;;;;4972405;28;20209;-70
2023/11/10 02:57:10;;;;;;;4.50;4.13;;;7.50;99.90;;;;;;4972530;28;20217;-70
2023/11/10 02:59:38;;;;;;;5.27;4.40;;;7.50;99.90;;;;;;4972364;28;20242;-70
2023/11/10 03:02:03;;;;;;;7.13;3.80;;;7.50;99.90;;;;;;4972689;28;20552;-70
2023/11/10 03:04:29;;;;;;;4.37;4.00;;;7.60;99.90;;;;;;4972802;28;20181;-70
2023/11/10 03:06:55;;;;;;;4.37;4.00;;;7.50;99.90;;;;;;4972336;28;20185;-70
2023/11/10 03:09:22;;;;;;;4.23;3.83;;;7.60;99.90;;;;;;4972352;28;20184;-70
2023/11/10 03:11:48;;;;;;;6.00;4.53;;;7.60;99.90;;;;;;4972635;28;20658;-71
2023/11/10 03:14:13;;;;;;;8.47;4.07;;;7.50;99.90;;;;;;4972833;28;20259;-70
2023/11/10 03:16:40;;;;;;;7.57;3.67;;;7.50;99.90;;;;;;4972579;28;20181;-70
2023/11/10 03:19:06;;;;;;;3.93;3.63;;;7.50;99.90;;;;;;4972720;28;20240;-70
2023/11/10 03:21:32;;;;;;;4.60;4.30;;;7.50;99.90;;;;;;4972650;28;20538;-70
2023/11/10 03:23:58;;;;;;;7.73;3.90;;;7.40;99.90;;;;;;4972523;28;20209;-70
2023/11/10 03:26:23;;;;;;;7.40;4.60;;;7.40;99.90;;;;;;4972537;28;20200;-70
2023/11/10 03:28:49;;;;;;;6.77;3.70;;;7.40;99.90;;;;;;4972741;28;20170;-70
2023/11/10 03:31:16;;;;;;;4.07;3.70;;;7.40;99.90;;;;;;4972427;28;20197;-70
2023/11/10 03:33:42;;;;;;;4.23;3.77;;;7.30;99.90;;;;;;4972557;28;20173;-70
2023/11/10 03:36:08;;;;;;;7.03;3.87;;;7.30;99.90;;;;;;4972820;28;20264;-70
2023/11/10 03:38:33;;;;;;;5.53;3.60;;;7.40;99.90;;;;;;4972102;28;20200;-70
2023/11/10 03:40:59;;;;;;;7.17;4.50;;;7.40;99.90;;;;;;4972666;28;20177;-70
2023/11/10 03:43:26;;;;;;;5.37;3.90;;;7.40;99.90;;;;;;4972448;28;20571;-69
2023/11/10 03:45:51;;;;;;;8.97;4.90;;;7.50;99.90;;;;;;4972369;28;20204;-69
2023/11/10 03:48:17;;;;;;;4.53;4.13;;;7.50;99.90;;;;;;4971902;28;20181;-69
2023/11/10 03:50:43;;;;;;;11.10;5.37;;;7.60;99.90;;;;;;4972325;28;20178;-70
2023/11/10 03:53:09;;;;;;;8.50;5.07;;;7.60;99.90;;;;;;4972209;28;20565;-69
2023/11/10 03:55:34;;;;;;;5.10;4.57;;;7.60;99.90;;;;;;4972359;28;20205;-70
2023/11/10 03:58:00;;;;;;;4.50;4.20;;;7.70;99.90;;;;;;4972014;28;20698;-69
2023/11/10 04:00:26;;;;;;;5.07;3.60;;;7.70;99.90;;;;;;4972380;28;20181;-70
2023/11/10 04:02:51;;;;;;;5.00;4.33;;;7.70;99.90;;;;;;4972357;28;20240;-70
2023/11/10 04:05:17;;;;;;;4.67;3.90;;;7.70;99.90;;;;;;4972467;28;20596;-69
2023/11/10 04:07:43;;;;;;;4.73;4.17;;;7.70;99.90;;;;;;4971772;28;20272;-70
2023/11/10 04:10:10;;;;;;;4.50;4.03;;;7.70;99.90;;;;;;4972288;28;20405;-70
2023/11/10 04:12:36;;;;;;;4.43;4.03;;;7.70;99.90;;;;;;4972336;28;20170;-70
2023/11/10 04:15:03;;;;;;;7.03;4.57;;;7.80;99.90;;;;;;4971772;28;20194;-70
2023/11/10 04:17:28;;;;;;;7.27;4.17;;;7.80;99.90;;;;;;4971938;28;20188;-70
2023/11/10 04:19:54;;;;;;;5.70;4.20;;;7.80;99.90;;;;;;4972131;28;20671;-70
2023/11/10 04:22:20;;;;;;;4.73;4.20;;;7.80;99.90;;;;;;4971848;28;20193;-70
2023/11/10 04:24:45;;;;;;;5.10;4.10;;;7.80;99.90;;;;;;4972180;28;20209;-70
2023/11/10 04:27:12;;;;;;;4.37;4.00;;;7.90;99.90;;;;;;4973166;28;20268;-69
2023/11/10 04:29:38;;;;;;;7.30;3.77;;;7.90;99.90;;;;;;4975458;28;20180;-70
2023/11/10 04:32:04;;;;;;;5.00;4.13;;;7.90;99.90;;;;;;4975706;28;20181;-70
2023/11/10 04:34:30;;;;;;;4.23;3.90;;;8.00;99.90;;;;;;4975510;28;20178;-70
2023/11/10 04:36:56;;;;;;;6.57;4.07;;;8.00;99.90;;;;;;4975143;28;20235;-70
2023/11/10 04:39:23;;;;;;;4.10;3.77;;;8.00;99.90;;;;;;4975487;28;20182;-70
2023/11/10 04:41:49;;;;;;;5.57;4.33;;;8.00;99.90;;;;;;4975246;28;20236;-69
2023/11/10 04:44:16;;;;;;;7.33;4.03;;;8.00;99.90;;;;;;4975398;28;20201;-69
2023/11/10 04:46:42;;;;;;;8.17;4.20;;;8.00;99.90;;;;;;4975237;28;20547;-69
2023/11/10 04:49:11;;;;;;;4.27;3.87;;;8.00;99.90;;;;;;4975353;28;20662;-70
2023/11/10 04:51:37;;;;;;;4.27;3.80;;;8.00;99.90;;;;;;4974908;28;20177;-69
2023/11/10 04:54:03;;;;;;;7.70;4.20;;;8.10;99.90;;;;;;4974635;28;20185;-70
2023/11/10 04:56:29;;;;;;;5.50;4.27;;;8.10;99.90;;;;;;4974100;28;20202;-70
2023/11/10 04:58:55;;;;;;;5.33;3.93;;;8.20;99.90;;;;;;4975045;28;20173;-70
2023/11/10 05:01:20;;;;;;;4.33;3.90;;;8.10;99.90;;;;;;4975034;28;20663;-70
2023/11/10 05:03:46;;;;;;;4.10;3.80;;;8.20;99.90;;;;;;4974826;28;20209;-70
2023/11/10 05:06:11;;;;;;;9.67;3.70;;;8.20;99.90;;;;;;4974754;28;20197;-70
2023/11/10 05:08:37;;;;;;;5.13;4.20;;;8.20;99.90;;;;;;4974907;28;20184;-70
2023/11/10 05:11:04;;;;;;;4.30;4.00;;;8.20;99.90;;;;;;4974197;28;20654;-70
2023/11/10 05:13:29;;;;;;;5.60;4.37;;;8.10;99.90;;;;;;4974777;28;20189;-70
2023/11/10 05:15:55;;;;;;;4.07;3.77;;;8.10;99.90;;;;;;4974503;28;20201;-70
2023/11/10 05:18:26;;;;;;;4.43;4.13;;;8.20;99.90;;;;;;4974735;28;20264;-69
2023/11/10 05:20:53;;;;;;;5.67;4.70;;;8.20;99.90;;;;;;4974775;28;20225;-69
2023/11/10 05:23:18;;;;;;;4.43;4.03;;;8.20;99.90;;;;;;4974521;28;20329;-70
2023/11/10 05:25:44;;;;;;;4.40;4.00;;;8.20;99.90;;;;;;4974264;28;20210;-69
2023/11/10 05:28:10;;;;;;;4.27;3.90;;;8.30;99.90;;;;;;4974112;28;20655;-70
2023/11/10 05:30:35;;;;;;;5.03;4.10;;;8.30;99.90;;;;;;4974465;28;20189;-70
2023/11/10 05:33:01;;;;;;;4.77;4.13;;;8.30;99.90;;;;;;4974484;28;20309;-70
2023/11/10 05:35:27;;;;;;;5.33;4.10;;;8.30;99.90;;;;;;4974002;28;20545;-69
2023/11/10 05:37:52;;;;;;;6.50;3.93;;;8.30;99.90;;;;;;4973531;28;20233;-69
2023/11/10 05:40:18;;;;;;;3.73;3.53;;;8.30;99.90;;;;;;4973849;28;20185;-70
2023/11/10 05:42:44;;;;;;;4.13;3.70;;;8.30;99.90;;;;;;4974319;28;20213;-69
2023/11/10 05:45:09;;;;;;;5.50;3.90;;;8.30;99.90;;;;;;4974122;28;20193;-70
2023/11/10 05:47:35;;;;;;;4.47;4.03;;;8.30;99.90;;;;;;4974122;28;20177;-70
2023/11/10 05:50:01;;;;;;;4.60;4.20;;;8.30;99.90;;;;;;4973654;28;20174;-69
2023/11/10 05:52:30;;;;;;;4.70;3.97;;;8.20;99.90;;;;;;4973986;28;20184;-69
2023/11/10 05:54:56;;;;;;;4.10;3.87;;;8.20;99.90;;;;;;4973957;28;20277;-70
2023/11/10 05:57:22;;;;;;;5.90;4.03;;;8.20;99.90;;;;;;4973673;28;20614;-69
2023/11/10 05:59:48;;;;;;;5.43;4.93;;;8.20;99.90;;;;;;4973717;28;20174;-69
2023/11/10 06:02:14;;;;;;;4.37;3.97;;;8.20;99.90;;;;;;4973552;28;20247;-69
2023/11/10 06:04:39;;;;;;;6.37;3.70;;;8.30;99.90;;;;;;4973449;28;20205;-70
2023/11/10 06:07:05;;;;;;;4.40;3.60;;;8.30;99.90;;;;;;4973561;28;20172;-70
2023/11/10 06:09:31;;;;;;;4.20;3.80;;;8.30;99.90;;;;;;4973870;28;20173;-69
2023/11/10 06:11:58;;;;;;;4.37;4.00;;;8.30;99.90;;;;;;4973466;28;20191;-70
2023/11/10 06:14:24;;;;;;;6.30;3.73;;;8.30;99.90;;;;;;4973282;28;20645;-69
2023/11/10 06:16:50;;;;;;;7.43;3.80;;;8.30;99.90;;;;;;4973336;28;20244;-69
2023/11/10 06:19:16;;;;;;;3.73;3.40;;;8.30;99.90;;;;;;4973691;28;20179;-69
2023/11/10 06:21:41;;;;;;;4.47;3.80;;;8.40;99.90;;;;;;4973287;28;20177;-70
2023/11/10 06:24:08;;;;;;;4.53;3.90;;;8.40;99.90;;;;;;4973437;28;20560;-70
2023/11/10 06:26:35;;;;;;;4.33;3.40;;;8.40;99.90;;;;;;4973211;28;20244;-70
2023/11/10 06:29:03;;;;;;;4.33;4.00;;;8.40;99.90;;;;;;4973479;28;20166;-69
2023/11/10 06:31:28;;;;;;;8.13;4.10;;;8.40;99.90;;;;;;4973382;28;20209;-69
2023/11/10 06:33:54;;;;;;;5.23;3.90;;;8.40;99.90;;;;;;4973241;28;20220;-69
2023/11/10 06:36:20;;;;;;;4.30;3.80;;;8.40;99.90;;;;;;4972476;28;20209;-69
2023/11/10 06:38:46;;;;;;;3.83;3.60;;;8.40;99.90;;;;;;4972858;28;20193;-69
2023/11/10 06:41:15;;;;;;;4.10;3.77;;;8.50;99.90;;;;;;4973035;28;20174;-68
2023/11/10 06:43:43;;;;;;;3.77;3.57;;;8.40;99.90;;;;;;4972877;28;20296;-69
2023/11/10 06:46:09;;;;;;;4.23;3.50;;;8.40;99.90;;;;;;4972816;28;20190;-70
2023/11/10 06:48:36;;;;;;;3.97;3.47;;;8.40;99.90;;;;;;4973078;28;20170;-69
2023/11/10 06:51:02;;;;;;;4.00;3.60;;;8.40;99.90;;;;;;4972474;28;20477;-70
2023/11/10 06:53:29;;;;;;;3.60;3.30;;;8.40;99.90;;;;;;4972833;28;20532;-70
2023/11/10 06:55:55;;;;;;;4.40;3.80;;;8.50;99.90;;;;;;4972666;28;20670;-69
2023/11/10 06:58:22;;;;;;;7.10;3.90;;;8.40;99.90;;;;;;4972469;28;20561;-70
2023/11/10 07:00:49;;;;;;;5.60;3.77;;;8.40;99.90;;;;;;4972803;28;20170;-70
2023/11/10 07:03:18;;;;;;;4.43;4.13;;;8.50;99.90;;;;;;4972623;28;20197;-69
2023/11/10 07:05:44;;;;;;;4.20;3.80;;;8.50;99.90;;;;;;4971976;28;20236;-69
2023/11/10 07:08:10;;;;;;;4.07;3.67;;;8.50;99.90;;;;;;4970538;28;20663;-70
2023/11/10 07:10:41;;;;;;;5.17;3.50;;;8.60;99.90;;;;;;4972536;28;20174;-70
2023/11/10 07:13:07;;;;;;;4.63;3.80;;;8.60;99.90;;;;;;4972518;28;20174;-69
2023/11/10 07:15:33;;;;;;;4.57;4.17;;;8.60;99.90;;;;;;4972089;28;20201;-69
2023/11/10 07:18:00;;;;;;;4.10;3.83;;;8.60;99.90;;;;;;4972135;28;20575;-69
2023/11/10 07:20:26;;;;;;;4.07;3.67;;;8.60;99.90;;;;;;4972079;28;20191;-70
2023/11/10 07:22:53;;;;;;;4.00;3.70;;;8.60;99.90;;;;;;4952841;29;20216;-69
2023/11/10 07:25:19;;;;;;;3.80;3.47;;;8.60;99.90;;;;;;4952688;28;20193;-69
2023/11/10 07:27:44;;;;;;;4.00;3.73;;;8.60;99.90;;;;;;4952774;29;20253;-70
2023/11/10 07:30:10;;;;;;;6.77;4.50;;;8.60;99.90;;;;;;4952877;29;20217;-69
2023/11/10 07:32:36;;;;;;;5.17;4.27;;;8.60;99.90;;;;;;4953229;29;20190;-69
2023/11/10 07:35:05;;;;;;;3.90;3.60;;;8.70;99.90;;;;;;4953823;28;20281;-69
2023/11/10 07:37:35;;;;;;;5.70;4.13;;;8.70;99.90;;;;;;4971759;28;20177;-69
2023/11/10 07:40:04;;;;;;;4.47;3.80;;;8.70;99.90;;;;;;4972122;28;20181;-69
2023/11/10 07:42:33;;;;;;;4.33;3.63;;;8.70;99.90;;;;;;4971922;28;20178;-69
2023/11/10 07:44:58;;;;;;;5.43;3.57;;;8.70;99.90;;;;;;4972040;28;20193;-70
2023/11/10 07:47:24;;;;;;;4.37;4.07;;;8.70;99.90;;;;;;4971781;28;20191;-69
2023/11/10 07:49:50;;;;;;;4.17;3.77;;;8.80;99.90;;;;;;4972082;28;20289;-69
2023/11/10 07:52:17;;;;;;;4.13;3.73;;;8.80;1.00;;;;;;4972021;28;20196;-69
2023/11/10 07:54:43;;;;;;;4.20;3.60;;;8.80;1.00;;;;;;4972482;28;20654;-69
2023/11/10 07:57:08;;;;;;;4.83;4.10;;;8.80;99.90;;;;;;4971700;28;20189;-69
2023/11/10 07:59:34;;;;;;;4.20;3.90;;;8.70;1.00;;;;;;4971783;28;20218;-69
2023/11/10 08:02:01;;;;;;;6.67;3.67;;;8.70;99.90;;;;;;4973332;28;20174;-69
2023/11/10 08:04:27;;;;;;;4.40;3.60;;;8.70;1.00;;;;;;4975427;28;20213;-69
2023/11/10 08:06:53;;;;;;;4.00;3.60;;;8.70;1.00;;;;;;4974977;28;20692;-69
2023/11/10 08:09:21;;;;;;;5.13;3.37;;;8.80;1.00;;;;;;4975104;28;20621;-69
2023/11/10 08:11:47;;;;;;;5.93;3.50;;;8.90;1.00;;;;;;4974436;28;20541;-70
2023/11/10 08:14:13;;;;;;;4.30;3.90;;;8.90;1.00;;;;;;4975305;28;20191;-69
2023/11/10 08:16:39;;;;;;;4.00;3.70;;;9.00;1.00;;;;;;4975403;28;20264;-69
2023/11/10 08:19:06;;;;;;;5.23;3.60;;;9.00;99.90;;;;;;4975574;28;20181;-69
2023/11/10 08:21:32;;;;;;;3.70;3.50;;;9.10;99.90;;;;;;4974259;28;20190;-69
2023/11/10 08:23:57;;;;;;;4.87;3.70;;;9.10;99.90;;;;;;4974455;28;20236;-70
2023/11/10 08:26:23;;;;;;;5.30;4.23;;;9.20;99.90;;;;;;4974891;28;20194;-69
2023/11/10 08:28:49;;;;;;;7.10;3.70;;;9.30;99.90;;;;;;4974135;28;21363;-70
2023/11/10 08:31:14;;;;;;;3.87;3.53;;;9.40;1.00;;;;;;4975359;28;20199;-69
2023/11/10 08:33:40;;;;;;;3.63;3.33;;;9.50;99.90;;;;;;4975631;28;20192;-69
2023/11/10 08:36:06;;;;;;;4.03;3.60;;;9.60;99.90;;;;;;4974898;28;20259;-69
2023/11/10 08:38:31;;;;;;;3.90;3.30;;;9.70;73.90;;;;;;4974067;28;20260;-69
2023/11/10 08:40:57;;;;;;;3.50;3.30;;;9.80;1.00;;;;;;4974997;28;20181;-69
2023/11/10 08:43:24;;;;;;;5.10;3.67;;;9.90;1.00;;;;;;4975175;28;20274;-69
2023/11/10 08:45:49;;;;;;;3.50;3.10;;;10.00;99.90;;;;;;4975147;28;20618;-69
2023/11/10 08:48:15;;;;;;;5.30;3.27;;;10.20;99.90;;;;;;4974832;28;20218;-69
2023/11/10 08:50:41;;;;;;;5.73;3.10;;;10.40;1.00;;;;;;4974992;28;20272;-70
2023/11/10 08:53:09;;;;;;;3.93;2.90;;;10.60;1.00;;;;;;4974959;28;20185;-69
2023/11/10 08:55:37;;;;;;;4.57;3.13;;;10.90;1.00;;;;;;4974365;28;20193;-69
2023/11/10 08:58:03;;;;;;;3.50;3.20;;;11.30;1.00;;;;;;4974740;28;20256;-70
2023/11/10 09:00:29;;;;;;;5.10;3.00;;;11.80;1.00;;;;;;4974752;28;20265;-69
2023/11/10 09:02:56;;;;;;;5.23;2.83;;;12.40;1.00;;;;;;4974906;28;20205;-70
2023/11/10 09:05:22;;;;;;;6.60;2.80;;;12.80;1.00;;;;;;4970888;28;20214;-69
2023/11/10 09:07:48;;;;;;;2.60;2.40;;;13.20;1.00;;;;;;4955517;29;20190;-69
2023/11/10 09:10:14;;;;;;;4.10;2.50;;;13.60;1.00;;;;;;4955494;29;20664;-69
2023/11/10 09:12:43;;;;;;;3.57;2.70;;;13.90;1.00;;;;;;4955389;28;20189;-70
2023/11/10 09:15:13;;;;;;;2.53;2.33;;;14.20;1.00;;;;;;4955588;29;20673;-70
2023/11/10 09:17:39;;;;;;;3.10;2.10;;;14.40;1.00;;;;;;4955268;29;20174;-70
2023/11/10 09:20:07;;;;;;;4.10;2.10;;;14.50;1.00;;;;;;4955075;29;20174;-70
2023/11/10 09:22:35;;;;;;;3.13;2.27;;;14.70;1.00;;;;;;4954991;29;20667;-69
2023/11/10 09:25:01;;;;;;;2.30;2.10;;;14.70;99.90;;;;;;4965475;28;20671;-69
2023/11/10 09:27:27;;;;;;;3.30;3.00;;;14.70;99.90;;;;;;4974228;28;20188;-69
2023/11/10 09:29:53;;;;;;;6.53;3.33;;;14.40;99.90;;;;;;4974178;28;20189;-70
2023/11/10 09:32:19;;;;;;;5.00;2.87;;;14.20;99.90;;;;;;4974398;28;20174;-69
2023/11/10 09:34:44;;;;;;;11.77;4.57;;;14.10;99.90;;;;;;4974288;28;20193;-68
2023/11/10 09:37:11;;;;;;;4.60;2.50;;;14.00;99.90;;;;;;4973919;28;20178;-70
2023/11/10 09:39:37;;;;;;;4.27;2.70;;;13.90;99.90;;;;;;4974152;28;20213;-69
2023/11/10 09:42:06;;;;;;;3.23;2.40;;;13.90;99.90;;;;;;4974046;28;20178;-69
2023/11/10 09:44:42;;;;;;;2.97;2.67;;;14.10;99.90;;;;;;4973950;28;20205;-69
2023/11/10 09:47:08;;;;;;;7.60;2.80;;;14.40;99.90;;;;;;4974012;28;20200;-70
2023/11/10 09:49:35;;;;;;;4.33;3.07;;;14.50;99.90;;;;;;4974254;28;20184;-69
2023/11/10 09:52:03;;;;;;;2.77;2.50;;;14.40;99.90;;;;;;4973636;28;20598;-69
2023/11/10 09:54:31;;;;;;;3.37;2.60;;;13.90;99.90;;;;;;4973796;28;20264;-69
2023/11/10 09:56:58;;;;;;;2.47;2.27;;;13.50;99.90;;;;;;4974454;28;20204;-69
2023/11/10 09:59:27;;;;;;;5.33;2.73;;;12.90;99.90;;;;;;4973947;28;20256;-69
2023/11/10 10:01:53;;;;;;;3.70;3.40;;;12.70;99.90;;;;;;4973917;28;20245;-70
2023/11/10 10:04:19;;;;;;;4.43;3.57;;;12.40;99.90;;;;;;4973109;28;20221;-69
2023/11/10 10:06:54;;;;;;;7.40;3.70;;;12.30;99.90;;;;;;4973691;28;20252;-69
2023/11/10 10:09:20;;;;;;;3.40;3.10;;;12.20;99.90;;;;;;4973813;28;20173;-69
2023/11/10 10:11:45;;;;;;;6.50;3.20;;;12.30;99.90;;;;;;4973744;28;20174;-69
2023/11/10 10:14:13;;;;;;;3.20;3.00;;;12.50;99.90;;;;;;4973504;28;20203;-69
2023/11/10 10:16:49;;;;;;;5.47;3.17;;;12.70;99.90;;;;;;4973452;28;20188;-69
2023/11/10 10:19:25;;;;;;;6.63;3.27;;;13.00;99.90;;;;;;4973328;28;20188;-70
2023/11/10 10:21:50;;;;;;;3.70;2.70;;;13.10;99.90;;;;;;4973348;28;20205;-69
2023/11/10 10:24:16;;;;;;;4.87;2.90;;;13.00;99.90;;;;;;4972729;28;20291;-68
2023/11/10 10:26:42;;;;;;;4.83;3.00;;;12.80;99.90;;;;;;4973350;28;20706;-70
2023/11/10 10:29:08;;;;;;;7.90;3.40;;;12.60;99.90;;;;;;4973420;28;20197;-69
2023/11/10 10:31:34;;;;;;;3.90;3.50;;;12.50;99.90;;;;;;4973250;28;20185;-69
2023/11/10 10:34:04;;;;;;;6.23;3.20;;;12.40;99.90;;;;;;4972728;28;20690;-69
2023/11/10 10:36:35;;;;;;;3.40;3.10;;;12.30;99.90;;;;;;4973075;28;20311;-70
2023/11/10 10:39:04;;;;;;;4.97;3.13;;;12.20;99.90;;;;;;4973439;28;20183;-69
2023/11/10 10:41:32;;;;;;;4.43;3.60;;;12.10;99.90;;;;;;4973182;28;20228;-69
2023/11/10 10:44:00;;;;;;;4.03;2.90;;;12.00;99.90;;;;;;4973226;28;20205;-69
2023/11/10 10:46:27;;;;;;;3.40;3.10;;;12.00;99.90;;;;;;4972783;28;20194;-69
2023/11/10 10:48:53;;;;;;;6.03;3.30;;;11.90;99.90;;;;;;4972938;28;20183;-69
2023/11/10 10:51:20;;;;;;;7.50;3.83;;;11.70;99.90;;;;;;4973085;28;20185;-69
2023/11/10 10:53:47;;;;;;;3.93;2.67;;;11.50;99.90;;;;;;4972957;28;20196;-69
2023/11/10 10:56:17;;;;;;;5.67;3.07;;;11.30;99.90;;;;;;4973033;28;20252;-69
2023/11/10 10:58:43;;;;;;;6.03;3.40;;;11.20;99.90;;;;;;4971533;28;20201;-70
2023/11/10 11:01:09;;;;;;;4.73;3.77;;;11.10;99.90;;;;;;4972754;28;20556;-70
2023/11/10 11:03:54;;;;;;;3.57;3.37;;;11.00;99.90;;;;;;4972681;28;20216;-71
2023/11/10 11:06:36;;;;;;;4.00;3.30;;;10.90;99.90;;;;;;4972273;28;20244;-69
2023/11/10 11:09:20;;;;;;;3.37;3.17;;;10.90;99.90;;;;;;4973038;28;20177;-69
2023/11/10 11:12:20;;;;;;;3.67;3.40;;;10.80;99.90;;;;;;4972934;28;20281;-69
2023/11/10 11:14:51;;;;;;;5.00;3.27;;;10.90;1.00;;;;;;4972567;28;20209;-69
2023/11/10 11:17:45;;;;;;;3.60;3.30;;;10.80;1.00;;;;;;4972524;28;20638;-69
2023/11/10 11:20:14;;;;;;;5.83;3.13;;;10.80;1.00;;;;;;4972871;28;20184;-69
2023/11/10 11:22:40;;;;;;;6.67;3.27;;;10.80;1.00;;;;;;4972809;28;20239;-69
2023/11/10 11:25:09;;;;;;;5.87;3.40;;;10.70;1.00;;;;;;4972744;28;20216;-69
2023/11/10 11:27:36;;;;;;;5.73;3.83;;;10.70;1.00;;;;;;4972325;28;20673;-69
2023/11/10 11:30:10;;;;;;;4.60;3.30;;;10.70;1.00;;;;;;4972378;28;20189;-69
2023/11/10 11:32:43;;;;;;;5.20;3.13;;;10.70;1.00;;;;;;4972428;28;20189;-69
2023/11/10 11:35:15;;;;;;;5.83;2.73;;;10.60;1.00;;;;;;4972360;28;20263;-69
2023/11/10 11:37:43;;;;;;;6.17;3.53;;;10.60;1.00;;;;;;4974631;28;20504;-69
2023/11/10 11:40:10;;;;;;;3.63;3.27;;;10.60;1.00;;;;;;4976552;28;20682;-70
2023/11/10 11:42:38;;;;;;;4.70;3.23;;;10.60;1.00;;;;;;4976541;28;20562;-69
2023/11/10 11:45:15;;;;;;;6.93;3.30;;;10.50;1.00;;;;;;4976530;28;20221;-70
2023/11/10 11:47:42;;;;;;;3.73;3.30;;;10.50;1.00;;;;;;4976117;28;20184;-69
2023/11/10 11:50:09;;;;;;;3.20;3.00;;;10.40;1.00;;;;;;4976527;28;20173;-69
2023/11/10 11:52:35;;;;;;;4.57;3.50;;;10.20;1.00;;;;;;4976325;28;20174;-69
2023/11/10 11:55:02;;;;;;;6.13;3.63;;;10.20;99.90;;;;;;4976395;28;20193;-69
2023/11/10 11:57:32;;;;;;;4.40;3.43;;;10.10;99.90;;;;;;4975810;28;20216;-70
2023/11/10 11:59:57;;;;;;;4.97;3.67;;;10.10;59.40;;;;;;4976288;28;20317;-69
2023/11/10 12:02:23;;;;;;;3.10;2.90;;;10.10;99.90;;;;;;4976035;28;20173;-70
2023/11/10 12:04:49;;;;;;;3.87;3.53;;;10.00;99.90;;;;;;4976126;28;20193;-70
2023/11/10 12:07:18;;;;;;;3.67;3.33;;;10.00;99.90;;;;;;4976046;28;20249;-70
2023/11/10 12:09:43;;;;;;;2.90;2.70;;;9.90;99.90;;;;;;4976124;28;20268;-70
2023/11/10 12:12:10;;;;;;;3.20;3.00;;;9.90;99.90;;;;;;4975922;28;20213;-71
2023/11/10 12:14:36;;;;;;;3.50;3.20;;;9.80;99.90;;;;;;4975836;28;20202;-70
2023/11/10 12:17:02;;;;;;;3.90;3.23;;;9.80;52.30;;;;;;4975849;28;20177;-70
2023/11/10 12:19:27;;;;;;;3.13;2.93;;;9.80;14.50;;;;;;4975994;28;20678;-70
2023/11/10 12:21:53;;;;;;;4.17;3.07;;;9.90;1.00;;;;;;4975934;28;20174;-70
2023/11/10 12:24:26;;;;;;;3.50;3.20;;;9.90;1.00;;;;;;4975543;28;20213;-70
2023/11/10 12:26:52;;;;;;;3.50;3.20;;;10.00;1.00;;;;;;4975669;28;20531;-69
2023/11/10 12:29:30;;;;;;;3.47;3.17;;;10.00;1.00;;;;;;4975876;28;20208;-69
2023/11/10 12:31:56;;;;;;;3.33;3.10;;;10.10;1.00;;;;;;4975692;28;20197;-70
2023/11/10 12:34:25;;;;;;;3.50;3.10;;;10.20;1.00;;;;;;4975320;28;20378;-70
2023/11/10 12:36:50;;;;;;;6.00;3.23;;;10.30;1.00;;;;;;4975606;28;20543;-70
2023/11/10 12:39:19;;;;;;;3.23;3.00;;;10.40;1.00;;;;;;4975496;28;20180;-69
2023/11/10 12:41:46;;;;;;;3.70;3.00;;;10.50;1.00;;;;;;4973662;28;20191;-70
2023/11/10 12:44:15;;;;;;;3.00;2.80;;;10.60;1.00;;;;;;4973516;28;20220;-69
2023/11/10 12:47:06;;;;;;;4.60;2.90;;;10.60;1.00;;;;;;4974917;28;20220;-69
2023/11/10 12:49:32;;;;;;;3.93;3.50;;;10.60;1.00;;;;;;4975038;28;20260;-69
2023/11/10 12:52:06;;;;;;;4.33;3.43;;;10.40;1.00;;;;;;4975398;28;20194;-69
2023/11/10 12:54:31;;;;;;;3.93;3.33;;;10.20;1.00;;;;;;4974957;28;20725;-70